createdAt,value
2019-02-14T00:00:21.353Z,25.93
2019-02-14T00:06:20.024Z,21.73
2019-02-14T00:09:00.060Z,19.97
2019-02-14T00:17:47.041Z,20.43
2019-02-14T00:23:13.356Z,21.83
2019-02-14T00:25:51.909Z,20.57
2019-02-14T00:28:28.414Z,19.67
2019-02-14T00:31:39.973Z,19.47
2019-02-14T00:37:09.989Z,20.00
2019-02-14T00:39:48.356Z,19.40
2019-02-14T00:42:25.428Z,18.77
2019-02-14T00:51:50.793Z,21.40
2019-02-14T01:13:30.866Z,25.33
2019-02-14T01:16:22.313Z,24.17
2019-02-14T01:19:08.486Z,24.73
2019-02-14T01:21:38.303Z,25.10
2019-02-14T01:28:16.853Z,26.30
2019-02-14T01:31:06.473Z,25.77
2019-02-14T01:36:20.015Z,23.50
2019-02-14T01:39:24.285Z,24.20
2019-02-14T01:42:04.468Z,24.07
2019-02-14T01:51:30.060Z,24.00
2019-02-14T01:54:11.520Z,22.90
2019-02-14T01:57:11.146Z,22.77
2019-02-14T02:00:11.604Z,23.03
2019-02-14T02:02:58.377Z,22.43
2019-02-14T02:06:09.992Z,23.10
2019-02-14T02:08:39.098Z,21.63
2019-02-14T02:14:54.257Z,22.47
2019-02-14T02:23:50.149Z,18.97
2019-02-14T02:39:22.782Z,20.40
2019-02-14T02:41:51.948Z,20.00
2019-02-14T02:47:37.504Z,19.70
2019-02-14T02:50:15.200Z,19.77
2019-02-14T02:53:05.366Z,19.13
2019-02-14T02:55:52.405Z,19.23
2019-02-14T02:58:38.603Z,17.93
2019-02-14T03:01:15.833Z,18.20
2019-02-14T03:10:38.557Z,16.83
2019-02-14T03:13:32.648Z,16.00
2019-02-14T03:16:10.115Z,17.00
2019-02-14T03:18:35.515Z,16.53
2019-02-14T03:21:17.268Z,16.40
2019-02-14T03:27:29.038Z,15.23
2019-02-14T03:30:11.481Z,14.50
2019-02-14T03:32:44.537Z,14.73
2019-02-14T03:35:32.469Z,13.87
2019-02-14T03:38:23.049Z,13.87
2019-02-14T03:41:09.300Z,14.30
2019-02-14T03:43:43.649Z,14.63
2019-02-14T03:49:09.352Z,13.43
2019-02-14T03:51:40.708Z,13.73
2019-02-14T03:57:06.932Z,13.53
2019-02-14T04:01:22.725Z,13.37
2019-02-14T04:02:20.519Z,13.23
2019-02-14T04:04:55.531Z,14.07
2019-02-14T04:07:24.143Z,13.77
2019-02-14T04:09:55.678Z,13.57
2019-02-14T04:12:40.241Z,13.63
2019-02-14T04:15:10.709Z,13.63
2019-02-14T04:17:42.557Z,14.17
2019-02-14T04:20:08.791Z,12.80
2019-02-14T04:22:46.138Z,14.17
2019-02-14T04:25:18.695Z,13.63
2019-02-14T04:27:48.719Z,13.97
2019-02-14T04:30:19.595Z,14.83
2019-02-14T04:32:51.254Z,14.67
2019-02-14T04:35:23.324Z,15.23
2019-02-14T04:37:52.008Z,14.23
2019-02-14T04:40:20.472Z,15.90
2019-02-14T04:42:48.935Z,15.80
2019-02-14T04:45:17.476Z,15.83
2019-02-14T04:47:46.013Z,16.10
2019-02-14T04:50:14.468Z,15.63
2019-02-14T04:52:43.013Z,16.33
2019-02-14T04:55:11.896Z,16.60
2019-02-14T04:57:40.392Z,16.30
2019-02-14T05:00:12.013Z,17.27
2019-02-14T05:02:40.715Z,16.20
2019-02-14T05:05:10.116Z,16.50
2019-02-14T05:07:38.664Z,15.53
2019-02-14T05:10:09.736Z,15.30
2019-02-14T05:12:38.480Z,16.37
2019-02-14T05:15:08.566Z,16.63
2019-02-14T05:17:37.020Z,16.07
2019-02-14T05:20:08.803Z,16.07
2019-02-14T05:22:37.256Z,17.23
2019-02-14T05:25:25.103Z,15.97
2019-02-14T05:28:14.443Z,16.40
2019-02-14T05:30:42.980Z,16.13
2019-02-14T05:33:11.437Z,16.87
2019-02-14T05:35:39.894Z,16.50
2019-02-14T05:38:08.507Z,16.03
2019-02-14T05:40:36.984Z,15.67
2019-02-14T05:43:05.438Z,16.50
2019-02-14T05:45:34.012Z,15.40
2019-02-14T05:48:02.477Z,16.17
2019-02-14T05:50:30.936Z,16.73
2019-02-14T05:52:59.463Z,16.90
2019-02-14T05:55:27.915Z,15.43
2019-02-14T05:57:56.385Z,15.87
2019-02-14T06:00:24.985Z,16.77
2019-02-14T06:02:53.440Z,15.70
2019-02-14T06:05:25.024Z,17.30
2019-02-14T06:07:53.562Z,16.50
2019-02-14T06:10:22.036Z,16.27
2019-02-14T06:13:09.911Z,15.83
2019-02-14T06:15:38.396Z,16.50
2019-02-14T06:18:06.861Z,15.77
2019-02-14T06:20:35.401Z,16.33
2019-02-14T06:23:03.920Z,15.93
2019-02-14T06:25:32.455Z,15.07
2019-02-14T06:28:01.045Z,16.40
2019-02-14T06:30:29.511Z,16.00
2019-02-14T06:32:57.983Z,15.77
2019-02-14T06:35:26.495Z,15.40
2019-02-14T06:37:57.359Z,15.47
2019-02-14T06:40:25.809Z,16.03
2019-02-14T06:42:54.333Z,15.47
2019-02-14T06:45:22.840Z,16.03
2019-02-14T06:47:51.530Z,15.77
2019-02-14T06:50:20.051Z,15.83
2019-02-14T06:52:48.509Z,15.83
2019-02-14T06:55:17.077Z,15.07
2019-02-14T06:58:04.901Z,16.63
2019-02-14T07:00:33.435Z,16.10
2019-02-14T07:03:02.015Z,15.93
2019-02-14T07:05:30.486Z,15.97
2019-02-14T07:07:59.032Z,15.73
2019-02-14T07:10:27.500Z,14.60
2019-02-14T07:12:55.976Z,15.20
2019-02-14T07:15:24.575Z,14.93
2019-02-14T07:17:55.909Z,15.13
2019-02-14T07:20:24.379Z,15.03
2019-02-14T07:22:52.925Z,14.93
2019-02-14T07:25:21.377Z,15.07
2019-02-14T07:27:49.829Z,16.00
2019-02-14T07:30:27.904Z,14.83
2019-02-14T07:32:56.355Z,14.90
2019-02-14T07:35:24.808Z,14.57
2019-02-14T07:37:54.094Z,14.90
2019-02-14T07:40:22.723Z,15.07
2019-02-14T07:42:51.184Z,14.77
2019-02-14T07:45:19.749Z,15.63
2019-02-14T07:47:48.282Z,14.97
2019-02-14T07:50:16.960Z,14.53
2019-02-14T07:52:45.415Z,15.40
2019-02-14T07:55:14.774Z,15.30
2019-02-14T07:57:43.521Z,15.47
2019-02-14T08:00:17.988Z,15.70
2019-02-14T08:02:46.439Z,15.67
2019-02-14T08:05:15.167Z,15.00
2019-02-14T08:07:43.722Z,15.77
2019-02-14T08:10:17.176Z,14.53
2019-02-14T08:12:45.792Z,14.43
2019-02-14T08:15:14.783Z,15.40
2019-02-14T08:17:43.242Z,14.60
2019-02-14T08:20:13.721Z,15.30
2019-02-14T08:22:42.247Z,14.93
2019-02-14T08:25:12.746Z,15.43
2019-02-14T08:27:41.350Z,15.03
2019-02-14T08:30:15.856Z,14.73
2019-02-14T08:32:44.464Z,15.20
2019-02-14T08:35:13.081Z,15.80
2019-02-14T08:37:45.640Z,16.03
2019-02-14T08:40:23.821Z,15.27
2019-02-14T08:42:52.351Z,15.60
2019-02-14T08:45:20.823Z,15.67
2019-02-14T08:47:49.379Z,15.47
2019-02-14T08:50:17.857Z,16.30
2019-02-14T08:52:46.352Z,15.47
2019-02-14T08:55:14.804Z,16.27
2019-02-14T08:57:43.488Z,15.50
2019-02-14T09:00:15.016Z,15.20
2019-02-14T09:02:43.548Z,16.17
2019-02-14T09:05:12.328Z,15.90
2019-02-14T09:07:40.799Z,15.80
2019-02-14T09:10:14.907Z,16.23
2019-02-14T09:12:43.576Z,14.63
2019-02-14T09:15:13.745Z,14.80
2019-02-14T09:17:42.208Z,14.03
2019-02-14T09:20:15.913Z,13.83
2019-02-14T09:22:44.367Z,13.43
2019-02-14T09:25:12.891Z,14.27
2019-02-14T09:27:41.635Z,13.83
2019-02-14T09:30:14.452Z,15.33
2019-02-14T09:32:43.027Z,14.23
2019-02-14T09:35:11.640Z,14.20
2019-02-14T09:37:40.156Z,13.90
2019-02-14T09:40:14.149Z,14.73
2019-02-14T09:42:42.816Z,14.80
2019-02-14T09:45:13.114Z,15.80
2019-02-14T09:47:41.594Z,14.30
2019-02-14T09:50:14.144Z,15.03
2019-02-14T09:52:42.828Z,16.27
2019-02-14T09:55:12.900Z,16.23
2019-02-14T09:57:41.751Z,16.57
2019-02-14T10:00:13.121Z,16.60
2019-02-14T10:02:55.097Z,16.23
2019-02-14T10:05:23.557Z,15.83
2019-02-14T10:07:52.116Z,15.53
2019-02-14T10:10:22.505Z,15.93
2019-02-14T10:12:51.032Z,15.77
2019-02-14T10:15:19.574Z,15.43
2019-02-14T10:17:48.057Z,15.67
2019-02-14T10:20:17.416Z,15.13
2019-02-14T10:22:46.119Z,15.27
2019-02-14T10:25:14.719Z,15.33
2019-02-14T10:27:43.252Z,16.30
2019-02-14T10:30:19.869Z,15.53
2019-02-14T10:32:48.320Z,16.63
2019-02-14T10:35:16.783Z,16.63
2019-02-14T10:37:45.479Z,16.80
2019-02-14T10:40:17.311Z,17.10
2019-02-14T10:42:45.824Z,17.87
2019-02-14T10:45:20.500Z,18.23
2019-02-14T10:47:48.965Z,18.70
2019-02-14T10:50:17.493Z,19.87
2019-02-14T10:52:46.095Z,18.10
2019-02-14T10:55:15.974Z,17.57
2019-02-14T10:57:44.587Z,18.77
2019-02-14T11:00:21.813Z,18.53
2019-02-14T11:02:50.494Z,20.00
2019-02-14T11:05:19.335Z,19.97
2019-02-14T11:07:48.129Z,20.47
2019-02-14T11:10:17.337Z,20.17
2019-02-14T11:12:45.931Z,20.83
2019-02-14T11:15:19.380Z,21.57
2019-02-14T11:17:49.084Z,20.63
2019-02-14T11:20:18.166Z,20.73
2019-02-14T11:22:48.767Z,21.37
2019-02-14T11:25:29.005Z,21.17
2019-02-14T11:27:57.866Z,22.17
2019-02-14T11:30:26.321Z,22.10
2019-02-14T11:32:54.837Z,22.73
2019-02-14T11:35:23.627Z,21.87
2019-02-14T11:37:52.077Z,23.27
2019-02-14T11:40:20.606Z,21.80
2019-02-14T11:42:49.151Z,23.20
2019-02-14T11:45:20.627Z,23.33
2019-02-14T11:47:49.089Z,23.23
2019-02-14T11:50:17.622Z,23.40
2019-02-14T11:52:46.161Z,22.90
2019-02-14T11:55:14.705Z,23.17
2019-02-14T11:57:43.342Z,24.47
2019-02-14T12:00:16.511Z,26.40
2019-02-14T12:02:44.973Z,26.13
2019-02-14T12:05:13.462Z,26.30
2019-02-14T12:07:41.989Z,26.13
2019-02-14T12:10:13.471Z,25.57
2019-02-14T12:12:41.402Z,26.70
2019-02-14T12:15:14.026Z,27.23
2019-02-14T12:17:42.667Z,26.83
2019-02-14T12:20:16.293Z,27.63
2019-02-14T12:22:47.026Z,28.17
2019-02-14T12:25:17.717Z,26.57
2019-02-14T12:27:46.181Z,26.83
2019-02-14T12:30:15.750Z,27.57
2019-02-14T12:32:44.296Z,26.03
2019-02-14T12:35:12.830Z,26.97
2019-02-14T12:37:41.287Z,26.13
2019-02-14T12:40:11.904Z,24.83
2019-02-14T12:42:40.359Z,25.73
2019-02-14T12:45:20.277Z,25.27
2019-02-14T12:47:42.167Z,25.73
2019-02-14T12:50:10.725Z,25.60
2019-02-14T12:52:39.228Z,26.03
2019-02-14T12:55:07.921Z,24.60
2019-02-14T12:57:36.412Z,24.93
2019-02-14T13:00:13.939Z,24.93
2019-02-14T13:02:42.407Z,23.07
2019-02-14T13:05:10.851Z,22.30
2019-02-14T13:07:39.387Z,22.83
2019-02-14T13:10:16.426Z,22.87
2019-02-14T13:12:45.053Z,23.03
2019-02-14T13:15:19.258Z,22.80
2019-02-14T13:17:47.750Z,23.37
2019-02-14T13:20:16.452Z,22.17
2019-02-14T13:22:44.979Z,21.70
2019-02-14T13:25:14.238Z,21.40
2019-02-14T13:27:42.746Z,22.60
2019-02-14T13:30:14.452Z,22.37
2019-02-14T13:32:43.004Z,20.50
2019-02-14T13:35:11.701Z,19.93
2019-02-14T13:37:40.612Z,20.80
2019-02-14T13:40:09.548Z,20.00
2019-02-14T13:42:38.181Z,20.03
2019-02-14T13:45:09.817Z,20.40
2019-02-14T13:47:38.279Z,20.53
2019-02-14T13:50:09.604Z,20.17
2019-02-14T13:52:38.186Z,21.67
2019-02-14T13:55:08.914Z,21.07
2019-02-14T13:57:37.668Z,21.60
2019-02-14T14:00:17.855Z,22.57
2019-02-14T14:02:46.353Z,22.63
2019-02-14T14:05:14.909Z,22.87
2019-02-14T14:07:43.383Z,21.77
2019-02-14T14:10:12.001Z,21.57
2019-02-14T14:12:42.235Z,20.20
2019-02-14T14:15:10.699Z,19.97
2019-02-14T14:17:39.316Z,21.03
2019-02-14T14:20:08.910Z,20.57
2019-02-14T14:22:37.437Z,19.90
2019-02-14T14:25:07.670Z,20.17
2019-02-14T14:27:36.226Z,21.37
2019-02-14T14:30:07.774Z,22.07
2019-02-14T14:32:36.390Z,22.53
2019-02-14T14:35:07.186Z,23.10
2019-02-14T14:37:36.490Z,22.50
2019-02-14T14:40:16.738Z,23.00
2019-02-14T14:42:49.961Z,24.40
2019-02-14T14:45:20.307Z,24.07
2019-02-14T14:47:48.984Z,25.00
2019-02-14T14:50:17.454Z,25.23
2019-02-14T14:52:45.997Z,26.03
2019-02-14T14:55:14.543Z,25.67
2019-02-14T14:57:43.012Z,26.40
2019-02-14T15:00:11.831Z,24.70
2019-02-14T15:02:40.642Z,25.70
2019-02-14T15:05:09.327Z,25.00
2019-02-14T15:07:37.862Z,25.83
2019-02-14T15:10:07.455Z,25.77
2019-02-14T15:12:35.989Z,25.37
2019-02-14T15:15:05.659Z,26.53
2019-02-14T15:17:34.115Z,26.13
2019-02-14T15:20:02.644Z,23.47
2019-02-14T15:22:31.253Z,24.83
2019-02-14T15:24:59.786Z,23.63
2019-02-14T15:27:28.394Z,21.77
2019-02-14T15:29:56.878Z,23.90
2019-02-14T15:32:25.331Z,21.97
2019-02-14T15:34:53.812Z,23.43
2019-02-14T15:37:22.291Z,23.00
2019-02-14T15:39:50.937Z,23.20
2019-02-14T15:42:19.405Z,22.47
2019-02-14T15:44:47.888Z,23.57
2019-02-14T15:47:16.542Z,24.17
2019-02-14T15:49:46.948Z,23.37
2019-02-14T15:52:15.365Z,22.40
2019-02-14T15:54:43.977Z,23.50
2019-02-14T15:57:12.455Z,23.70
2019-02-14T15:59:42.999Z,25.77
2019-02-14T16:02:11.345Z,24.83
2019-02-14T16:04:39.958Z,24.47
2019-02-14T16:07:08.430Z,24.10
2019-02-14T16:09:38.858Z,26.00
2019-02-14T16:12:07.511Z,26.17
2019-02-14T16:14:36.011Z,27.33
2019-02-14T16:17:06.646Z,24.33
2019-02-14T16:19:36.462Z,25.77
2019-02-14T16:22:05.118Z,26.43
2019-02-14T16:24:33.682Z,27.20
2019-02-14T16:27:03.351Z,26.93
2019-02-14T16:29:31.988Z,26.07
2019-02-14T16:32:01.233Z,27.80
2019-02-14T16:34:29.793Z,27.67
2019-02-14T16:36:58.373Z,30.43
2019-02-14T16:39:28.620Z,27.53
2019-02-14T16:41:57.300Z,29.23
2019-02-14T16:44:25.787Z,27.07
2019-02-14T16:46:54.310Z,27.40
2019-02-14T16:49:22.859Z,27.13
2019-02-14T16:51:51.396Z,26.80
2019-02-14T16:54:20.035Z,27.33
2019-02-14T16:56:48.514Z,28.57
2019-02-14T16:59:17.204Z,29.00
2019-02-14T17:01:45.743Z,29.03
2019-02-14T17:04:14.228Z,30.27
2019-02-14T17:06:42.843Z,29.67
2019-02-14T17:09:11.402Z,31.70
2019-02-14T17:11:39.865Z,30.90
2019-02-14T17:14:08.606Z,32.70
2019-02-14T17:16:37.158Z,27.53
2019-02-14T17:19:05.693Z,30.53
2019-02-14T17:21:34.266Z,30.43
2019-02-14T17:24:03.064Z,31.27
2019-02-14T17:26:31.643Z,31.70
2019-02-14T17:29:00.166Z,30.77
2019-02-14T17:31:28.701Z,30.60
2019-02-14T17:33:57.196Z,31.27
2019-02-14T17:36:25.669Z,31.03
2019-02-14T17:38:54.281Z,31.00
2019-02-14T17:41:22.749Z,29.97
2019-02-14T17:43:51.215Z,28.87
2019-02-14T17:46:19.811Z,28.33
2019-02-14T17:48:48.378Z,27.37
2019-02-14T17:51:16.910Z,27.87
2019-02-14T17:53:45.450Z,27.23
2019-02-14T17:56:13.958Z,26.60
2019-02-14T17:58:42.410Z,25.40
2019-02-14T18:01:11.022Z,25.03
2019-02-14T18:03:39.501Z,25.30
2019-02-14T18:06:08.627Z,24.10
2019-02-14T18:08:37.477Z,25.13
2019-02-14T18:11:06.094Z,25.17
2019-02-14T18:13:34.751Z,24.13
2019-02-14T18:16:03.694Z,23.80
2019-02-14T18:18:32.258Z,23.77
2019-02-14T18:21:00.725Z,23.57
2019-02-14T18:23:29.364Z,23.33
2019-02-14T18:25:57.825Z,23.30
2019-02-14T18:28:26.386Z,24.67
2019-02-14T18:30:54.960Z,24.67
2019-02-14T18:33:23.468Z,24.27
2019-02-14T18:35:52.075Z,23.97
2019-02-14T18:38:20.660Z,25.50
2019-02-14T18:40:49.205Z,23.63
2019-02-14T18:43:17.744Z,23.03
2019-02-14T18:45:46.428Z,21.90
2019-02-14T18:48:15.047Z,21.20
2019-02-14T18:50:43.581Z,20.93
2019-02-14T18:53:12.153Z,21.87
2019-02-14T18:55:40.730Z,19.70
2019-02-14T18:58:09.359Z,20.57
2019-02-14T19:00:37.975Z,19.50
2019-02-14T19:03:06.553Z,18.57
2019-02-14T19:05:35.216Z,20.60
2019-02-14T19:08:04.401Z,19.93
2019-02-14T19:10:33.120Z,19.97
2019-02-14T19:13:01.628Z,20.90
2019-02-14T19:15:30.162Z,19.77
2019-02-14T19:17:58.643Z,18.70
2019-02-14T19:20:27.213Z,19.30
2019-02-14T19:22:55.741Z,19.20
2019-02-14T19:25:24.212Z,18.90
2019-02-14T19:27:52.694Z,18.20
2019-02-14T19:30:21.192Z,20.00
2019-02-14T19:32:49.755Z,19.23
2019-02-14T19:35:23.059Z,19.80
2019-02-14T19:37:48.587Z,18.70
2019-02-14T19:40:17.057Z,18.60
2019-02-14T19:42:45.536Z,18.23
2019-02-14T19:45:14.099Z,18.40
2019-02-14T19:47:42.627Z,18.70
2019-02-14T19:50:12.814Z,18.17
2019-02-14T19:52:41.334Z,17.40
2019-02-14T19:55:10.246Z,17.57
2019-02-14T19:57:38.990Z,17.97
2019-02-14T20:00:10.520Z,17.47
2019-02-14T20:02:39.132Z,17.47
2019-02-14T20:05:09.259Z,17.43
2019-02-14T20:07:37.731Z,17.17
2019-02-14T20:10:14.155Z,17.17
2019-02-14T20:12:42.817Z,17.30
2019-02-14T20:15:17.010Z,17.60
2019-02-14T20:17:45.563Z,16.80
2019-02-14T20:20:14.086Z,17.40
2019-02-14T20:22:42.807Z,18.53
2019-02-14T20:25:14.410Z,18.10
2019-02-14T20:27:42.912Z,18.10
2019-02-14T20:30:11.559Z,18.00
2019-02-14T20:32:40.196Z,17.87
2019-02-14T20:35:09.238Z,17.97
2019-02-14T20:37:37.698Z,18.60
2019-02-14T20:40:09.329Z,18.30
2019-02-14T20:42:37.856Z,18.63
2019-02-14T20:45:09.258Z,18.17
2019-02-14T20:47:37.869Z,19.03
2019-02-14T20:50:10.034Z,18.60
2019-02-14T20:52:38.560Z,18.50
2019-02-14T20:55:10.377Z,18.83
2019-02-14T20:57:58.201Z,18.97
2019-02-14T21:00:38.827Z,19.50
2019-02-14T21:03:07.366Z,19.67
2019-02-14T21:05:35.889Z,19.23
2019-02-14T21:08:04.873Z,20.37
2019-02-14T21:10:33.411Z,20.13
2019-02-14T21:13:02.024Z,20.17
2019-02-14T21:15:30.572Z,19.53
2019-02-14T21:17:59.036Z,20.30
2019-02-14T21:20:27.510Z,19.87
2019-02-14T21:22:56.275Z,20.67
2019-02-14T21:25:24.743Z,19.57
2019-02-14T21:27:53.286Z,20.40
2019-02-14T21:30:22.069Z,21.40
2019-02-14T21:32:50.600Z,21.20
2019-02-14T21:35:19.146Z,20.77
2019-02-14T21:37:47.695Z,21.63
2019-02-14T21:40:17.776Z,20.90
2019-02-14T21:42:46.484Z,20.77
2019-02-14T21:45:16.245Z,22.20
2019-02-14T21:47:44.838Z,19.60
2019-02-14T21:50:15.084Z,20.80
2019-02-14T21:52:43.553Z,21.50
2019-02-14T21:55:13.322Z,21.80
2019-02-14T21:57:42.009Z,21.70
2019-02-14T22:00:16.216Z,20.50
2019-02-14T22:02:45.202Z,20.90
2019-02-14T22:05:14.208Z,21.97
2019-02-14T22:07:42.741Z,21.57
2019-02-14T22:10:12.935Z,21.17
2019-02-14T22:12:43.055Z,21.63
2019-02-14T22:15:14.335Z,20.67
2019-02-14T22:17:43.000Z,20.63
2019-02-14T22:20:11.868Z,21.13
2019-02-14T22:23:04.340Z,21.60
2019-02-14T22:28:42.743Z,20.30
2019-02-14T22:34:11.401Z,21.27
2019-02-14T22:37:02.526Z,21.67
2019-02-14T22:42:46.223Z,20.23
2019-02-14T22:48:29.031Z,20.80
2019-02-14T22:51:31.401Z,20.70
2019-02-14T23:06:55.307Z,20.80
2019-02-14T23:12:40.203Z,20.97
2019-02-14T23:15:14.788Z,20.87
2019-02-14T23:17:50.666Z,19.70
2019-02-14T23:20:26.998Z,19.13
2019-02-14T23:23:06.321Z,19.60
2019-02-14T23:25:39.854Z,19.43
2019-02-14T23:28:10.420Z,19.37
2019-02-14T23:30:40.579Z,19.57
2019-02-14T23:33:10.307Z,19.63
2019-02-14T23:35:46.331Z,20.43
2019-02-14T23:38:17.962Z,20.93
2019-02-14T23:40:43.930Z,19.87
2019-02-14T23:43:14.016Z,19.97
2019-02-14T23:45:42.629Z,22.30
2019-02-14T23:48:13.754Z,22.33
2019-02-14T23:50:42.280Z,22.20
2019-02-14T23:53:16.911Z,22.93
2019-02-14T23:55:45.083Z,22.17
2019-02-14T23:58:41.080Z,22.83
